createdAt,value
2022-11-02T00:01:16.717Z,99213.69
2022-11-02T00:03:18.293Z,99211.78
2022-11-02T00:05:24.659Z,99208.75
2022-11-02T00:07:26.115Z,99212.91
2022-11-02T00:09:27.611Z,99212.66
2022-11-02T00:11:29.308Z,99214.31
2022-11-02T00:13:32.083Z,99211.31
2022-11-02T00:15:35.971Z,99205.56
2022-11-02T00:17:40.102Z,99210.53
2022-11-02T00:19:41.620Z,99211.38
2022-11-02T00:21:43.644Z,99202.06
2022-11-02T00:23:46.661Z,99206.47
2022-11-02T00:25:52.649Z,99201.81
2022-11-02T00:27:54.278Z,99210.84
2022-11-02T00:29:55.985Z,99213.34
2022-11-02T00:31:57.662Z,99216.09
2022-11-02T00:34:19.820Z,99216.09
2022-11-02T00:36:21.657Z,99213.34
2022-11-02T00:38:23.978Z,99215.81
2022-11-02T00:40:26.195Z,99221.06
2022-11-02T00:42:28.266Z,99218.03
2022-11-02T00:44:29.848Z,99221.63
2022-11-02T00:46:32.621Z,99224.09
2022-11-02T00:48:34.416Z,99229.34
2022-11-02T00:50:36.385Z,99230.16
2022-11-02T00:52:40.301Z,99230.75
2022-11-02T00:54:42.452Z,99219.75
2022-11-02T00:56:57.287Z,99223.09
2022-11-02T00:58:59.224Z,99220.34
2022-11-02T01:01:05.324Z,99220.09
2022-11-02T01:03:07.177Z,99217.34
2022-11-02T01:05:10.823Z,99220.94
2022-11-02T01:07:12.407Z,99217.09
2022-11-02T01:09:15.772Z,99223.44
2022-11-02T01:11:20.256Z,99226.16
2022-11-02T01:13:21.947Z,99216.28
2022-11-02T01:15:23.659Z,99216.28
2022-11-02T01:17:25.248Z,99213.81
2022-11-02T01:19:27.129Z,99217.34
2022-11-02T01:21:28.748Z,99218.44
2022-11-02T01:23:36.952Z,99214.00
2022-11-02T01:25:38.537Z,99223.34
2022-11-02T01:27:40.048Z,99218.94
2022-11-02T01:29:41.698Z,99219.19
2022-11-02T01:31:43.238Z,99221.09
2022-11-02T01:33:46.003Z,99212.31
2022-11-02T01:35:47.731Z,99209.81
2022-11-02T01:37:49.350Z,99208.97
2022-11-02T01:39:50.944Z,99201.31
2022-11-02T01:41:54.462Z,99199.88
2022-11-02T01:43:58.897Z,99196.56
2022-11-02T01:46:12.889Z,99201.75
2022-11-02T01:48:15.026Z,99202.00
2022-11-02T01:50:26.094Z,99197.28
2022-11-02T01:52:34.299Z,99205.78
2022-11-02T01:54:50.441Z,99204.63
2022-11-02T01:56:57.217Z,99204.06
2022-11-02T01:59:03.095Z,99202.66
2022-11-02T02:01:05.106Z,99202.59
2022-11-02T02:03:09.810Z,99201.78
2022-11-02T02:05:14.651Z,99200.63
2022-11-02T02:07:17.187Z,99200.88
2022-11-02T02:09:20.757Z,99200.59
2022-11-02T02:11:33.353Z,99197.78
2022-11-02T02:13:35.611Z,99199.13
2022-11-02T02:16:06.682Z,99199.91
2022-11-02T02:18:33.249Z,99197.66
2022-11-02T02:21:05.112Z,99194.59
2022-11-02T02:23:31.225Z,99189.03
2022-11-02T02:26:11.656Z,99186.25
2022-11-02T02:28:31.013Z,99185.94
2022-11-02T02:30:40.453Z,99192.75
2022-11-02T02:32:54.924Z,99182.31
2022-11-02T02:35:02.104Z,99180.91
2022-11-02T02:37:19.116Z,99180.56
2022-11-02T02:39:36.315Z,99180.00
2022-11-02T02:41:39.698Z,99179.44
2022-11-02T02:43:51.073Z,99182.66
2022-11-02T02:46:03.943Z,99187.56
2022-11-02T02:48:06.326Z,99179.03
2022-11-02T02:50:17.970Z,99181.53
2022-11-02T02:52:21.786Z,99178.72
2022-11-02T02:54:31.261Z,99185.53
2022-11-02T02:56:39.911Z,99182.19
2022-11-02T02:58:47.361Z,99167.09
2022-11-02T03:00:53.166Z,99173.69
2022-11-02T03:03:03.693Z,99175.00
2022-11-02T03:05:24.174Z,99171.94
2022-11-02T03:07:33.749Z,99164.78
2022-11-02T03:09:52.111Z,99163.63
2022-11-02T03:12:31.940Z,99172.94
2022-11-02T03:15:11.004Z,99170.91
2022-11-02T03:17:23.898Z,99173.94
2022-11-02T03:19:49.285Z,99170.63
2022-11-02T03:22:04.787Z,99172.78
2022-11-02T03:24:15.021Z,99168.94
2022-11-02T03:26:34.162Z,99176.59
2022-11-02T03:28:54.736Z,99179.31
2022-11-02T03:31:08.460Z,99178.75
2022-11-02T03:33:22.250Z,99180.66
2022-11-02T03:35:41.561Z,99176.00
2022-11-02T03:37:59.077Z,99177.91
2022-11-02T03:40:06.455Z,99184.22
2022-11-02T03:42:12.571Z,99184.22
2022-11-02T03:44:20.918Z,99180.38
2022-11-02T03:46:26.277Z,99192.16
2022-11-02T03:48:35.051Z,99189.19
2022-11-02T03:50:47.315Z,99195.25
2022-11-02T03:52:56.364Z,99194.16
2022-11-02T03:55:12.360Z,99193.06
2022-11-02T03:57:21.844Z,99192.00
2022-11-02T03:59:23.601Z,99190.91
2022-11-02T04:01:27.210Z,99194.50
2022-11-02T04:03:32.098Z,99188.19
2022-11-02T04:05:39.747Z,99192.81
2022-11-02T04:08:10.883Z,99194.50
2022-11-02T04:10:12.885Z,99195.56
2022-11-02T04:12:33.491Z,99201.84
2022-11-02T04:14:37.897Z,99198.56
2022-11-02T04:16:43.203Z,99194.16
2022-11-02T04:19:08.983Z,99192.25
2022-11-02T04:21:11.449Z,99192.75
2022-11-02T04:23:31.634Z,99197.97
2022-11-02T04:25:33.347Z,99201.78
2022-11-02T04:28:08.815Z,99190.00
2022-11-02T04:30:23.408Z,99199.31
2022-11-02T04:32:45.980Z,99201.78
2022-11-02T04:34:50.795Z,99194.66
2022-11-02T04:36:55.553Z,99196.31
2022-11-02T04:38:57.964Z,99187.03
2022-11-02T04:41:21.207Z,99192.50
2022-11-02T04:43:25.381Z,99199.63
2022-11-02T04:45:27.605Z,99196.66
2022-11-02T04:47:32.490Z,99194.75
2022-11-02T04:49:36.992Z,99202.97
2022-11-02T04:51:45.746Z,99199.97
2022-11-02T04:53:52.829Z,99199.13
2022-11-02T04:55:55.324Z,99201.63
2022-11-02T04:57:57.200Z,99207.91
2022-11-02T04:59:59.055Z,99206.00
2022-11-02T05:02:04.389Z,99211.25
2022-11-02T05:04:07.069Z,99201.38
2022-11-02T05:06:11.358Z,99204.09
2022-11-02T05:08:13.220Z,99202.44
2022-11-02T05:10:15.095Z,99199.47
2022-11-02T05:12:19.397Z,99195.31
2022-11-02T05:14:23.820Z,99204.38
2022-11-02T05:16:26.160Z,99203.53
2022-11-02T05:18:29.654Z,99206.25
2022-11-02T05:20:33.801Z,99204.59
2022-11-02T05:22:41.159Z,99211.75
2022-11-02T05:24:42.961Z,99207.34
2022-11-02T05:26:52.912Z,99202.13
2022-11-02T05:28:58.668Z,99213.31
2022-11-02T05:31:01.883Z,99210.56
2022-11-02T05:33:06.586Z,99209.75
2022-11-02T05:35:09.636Z,99219.03
2022-11-02T05:37:11.274Z,99216.56
2022-11-02T05:39:12.899Z,99213.81
2022-11-02T05:41:14.839Z,99212.38
2022-11-02T05:43:17.844Z,99217.84
2022-11-02T05:45:23.585Z,99218.13
2022-11-02T05:47:26.172Z,99220.03
2022-11-02T05:49:27.844Z,99217.56
2022-11-02T05:51:29.397Z,99222.19
2022-11-02T05:53:32.584Z,99226.00
2022-11-02T05:55:35.543Z,99224.34
2022-11-02T05:57:37.133Z,99227.31
2022-11-02T05:59:38.758Z,99221.25
2022-11-02T06:01:40.480Z,99225.09
2022-11-02T06:03:42.260Z,99227.00
2022-11-02T06:05:44.645Z,99231.63
2022-11-02T06:07:48.773Z,99233.81
2022-11-02T06:09:50.488Z,99228.56
2022-11-02T06:11:52.232Z,99240.59
2022-11-02T06:13:54.008Z,99242.50
2022-11-02T06:15:59.470Z,99242.50
2022-11-02T06:18:01.155Z,99249.03
2022-11-02T06:20:02.756Z,99240.25
2022-11-02T06:22:04.413Z,99247.38
2022-11-02T06:24:06.365Z,99241.91
2022-11-02T06:26:10.059Z,99247.38
2022-11-02T06:28:11.716Z,99254.50
2022-11-02T06:30:13.265Z,99252.38
2022-11-02T06:32:14.907Z,99254.00
2022-11-02T06:34:16.419Z,99255.69
2022-11-02T06:36:18.042Z,99257.09
2022-11-02T06:38:20.152Z,99266.13
2022-11-02T06:40:25.635Z,99264.81
2022-11-02T06:42:28.418Z,99265.63
2022-11-02T06:44:30.028Z,99270.03
2022-11-02T06:46:32.440Z,99269.75
2022-11-02T06:48:36.586Z,99271.16
2022-11-02T06:50:38.571Z,99274.53
2022-11-02T06:52:48.910Z,99275.31
2022-11-02T06:54:50.801Z,99283.03
2022-11-02T06:56:55.119Z,99272.94
2022-11-02T06:58:56.876Z,99283.38
2022-11-02T07:01:01.205Z,99280.16
2022-11-02T07:03:09.376Z,99276.09
2022-11-02T07:05:11.597Z,99281.88
2022-11-02T07:07:13.055Z,99289.63
2022-11-02T07:09:15.068Z,99291.03
2022-11-02T07:11:18.722Z,99295.19
2022-11-02T07:13:20.928Z,99297.69
2022-11-02T07:15:24.101Z,99308.97
2022-11-02T07:17:31.068Z,99305.16
2022-11-02T07:19:33.838Z,99313.69
2022-11-02T07:21:40.471Z,99318.44
2022-11-02T07:23:44.247Z,99318.75
2022-11-02T07:25:45.913Z,99320.16
2022-11-02T07:27:50.311Z,99322.97
2022-11-02T07:29:51.981Z,99334.00
2022-11-02T07:31:56.863Z,99334.06
2022-11-02T07:33:58.432Z,99337.47
2022-11-02T07:36:02.794Z,99333.16
2022-11-02T07:38:06.915Z,99336.81
2022-11-02T07:40:10.864Z,99328.06
2022-11-02T07:42:16.571Z,99336.97
2022-11-02T07:44:18.929Z,99336.75
2022-11-02T07:46:31.551Z,99343.16
2022-11-02T07:48:33.428Z,99351.19
2022-11-02T07:50:35.347Z,99352.91
2022-11-02T07:52:47.673Z,99343.09
2022-11-02T07:54:49.417Z,99346.47
2022-11-02T07:56:51.310Z,99339.97
2022-11-02T07:58:52.978Z,99344.69
2022-11-02T08:01:00.043Z,99349.44
2022-11-02T08:03:03.831Z,99348.41
2022-11-02T08:05:06.337Z,99349.59
2022-11-02T08:07:08.050Z,99350.72
2022-11-02T08:09:09.677Z,99350.22
2022-11-02T08:11:13.269Z,99347.53
2022-11-02T08:13:21.170Z,99349.78
2022-11-02T08:15:23.139Z,99352.56
2022-11-02T08:17:24.871Z,99356.44
2022-11-02T08:19:26.552Z,99359.75
2022-11-02T08:21:28.132Z,99363.91
2022-11-02T08:23:30.255Z,99361.22
2022-11-02T08:25:32.713Z,99361.53
2022-11-02T08:27:34.671Z,99370.91
2022-11-02T08:29:36.933Z,99373.97
2022-11-02T08:31:38.636Z,99378.94
2022-11-02T08:33:40.215Z,99375.94
2022-11-02T08:35:43.788Z,99369.94
2022-11-02T08:37:45.384Z,99380.63
2022-11-02T08:39:49.950Z,99377.38
2022-11-02T08:41:52.192Z,99372.22
2022-11-02T08:43:53.956Z,99373.84
2022-11-02T08:46:17.221Z,99374.19
2022-11-02T08:48:19.119Z,99379.97
2022-11-02T08:50:24.245Z,99373.97
2022-11-02T08:52:25.964Z,99371.78
2022-11-02T08:54:27.956Z,99365.25
2022-11-02T08:56:29.673Z,99366.38
2022-11-02T08:58:31.425Z,99367.53
2022-11-02T09:00:34.716Z,99363.16
2022-11-02T09:02:36.301Z,99365.09
2022-11-02T09:04:38.089Z,99369.00
2022-11-02T09:06:51.626Z,99366.53
2022-11-02T09:08:56.344Z,99371.53
2022-11-02T09:11:05.523Z,99371.59
2022-11-02T09:13:10.370Z,99370.00
2022-11-02T09:15:12.101Z,99371.13
2022-11-02T09:17:18.684Z,99368.16
2022-11-02T09:19:20.422Z,99366.00
2022-11-02T09:21:22.151Z,99372.94
2022-11-02T09:23:23.989Z,99384.53
2022-11-02T09:25:27.030Z,99376.84
2022-11-02T09:27:28.895Z,99377.72
2022-11-02T09:29:30.368Z,99382.97
2022-11-02T09:31:32.139Z,99392.94
2022-11-02T09:34:04.798Z,99387.72
2022-11-02T09:36:06.978Z,99396.00
2022-11-02T09:38:08.823Z,99398.78
2022-11-02T09:40:22.956Z,99389.72
2022-11-02T09:42:24.831Z,99399.09
2022-11-02T09:44:58.590Z,99397.19
2022-11-02T09:47:55.966Z,99394.19
2022-11-02T09:49:29.189Z,99394.22
2022-11-02T09:51:35.573Z,99397.59
2022-11-02T09:54:22.356Z,99402.28
2022-11-02T09:56:24.373Z,99400.41
2022-11-02T09:58:32.731Z,99399.56
2022-11-02T10:00:42.261Z,99404.81
2022-11-02T10:03:05.443Z,99402.91
2022-11-02T10:05:25.884Z,99405.97
2022-11-02T10:08:04.500Z,99403.78
2022-11-02T10:10:06.481Z,99400.19
2022-11-02T10:12:28.897Z,99397.47
2022-11-02T10:14:35.895Z,99394.16
2022-11-02T10:16:50.853Z,99396.41
2022-11-02T10:18:57.763Z,99408.81
2022-11-02T10:21:13.070Z,99409.91
2022-11-02T10:23:30.908Z,99409.38
2022-11-02T10:25:35.164Z,99398.34
2022-11-02T10:27:40.634Z,99397.53
2022-11-02T10:30:17.045Z,99390.09
2022-11-02T10:32:19.149Z,99395.59
2022-11-02T10:34:29.869Z,99389.53
2022-11-02T10:36:46.319Z,99387.00
2022-11-02T10:39:03.018Z,99385.63
2022-11-02T10:41:27.803Z,99392.75
2022-11-02T10:43:59.726Z,99389.97
2022-11-02T10:46:05.020Z,99387.72
2022-11-02T10:48:18.734Z,99380.56
2022-11-02T10:50:47.518Z,99387.13
2022-11-02T10:52:49.205Z,99378.56
2022-11-02T10:54:52.362Z,99388.97
2022-11-02T10:56:56.243Z,99381.22
2022-11-02T10:59:14.159Z,99383.66
2022-11-02T11:01:16.250Z,99373.94
2022-11-02T11:03:19.519Z,99387.19
2022-11-02T11:05:21.369Z,99379.69
2022-11-02T11:07:27.861Z,99385.97
2022-11-02T11:09:42.888Z,99389.84
2022-11-02T11:12:03.047Z,99390.06
2022-11-02T11:16:39.774Z,99389.47
2022-11-02T11:21:07.778Z,99381.16
2022-11-02T11:23:09.708Z,99388.88
2022-11-02T11:25:27.838Z,99382.78
2022-11-02T11:27:45.239Z,99383.84
2022-11-02T11:29:54.107Z,99386.56
2022-11-02T11:31:56.077Z,99385.44
2022-11-02T11:34:00.344Z,99384.56
2022-11-02T11:36:02.272Z,99386.16
2022-11-02T11:38:08.310Z,99385.59
2022-11-02T11:40:20.112Z,99383.88
2022-11-02T11:42:25.840Z,99385.78
2022-11-02T11:44:27.766Z,99391.56
2022-11-02T11:46:41.727Z,99384.91
2022-11-02T11:48:59.614Z,99387.09
2022-11-02T11:51:03.716Z,99383.44
2022-11-02T11:53:26.523Z,99388.66
2022-11-02T11:55:31.880Z,99387.19
2022-11-02T11:59:42.717Z,99390.13
2022-11-02T12:01:44.625Z,99385.13
2022-11-02T12:04:01.289Z,99380.97
2022-11-02T12:06:28.335Z,99386.19
2022-11-02T12:08:59.004Z,99378.16
2022-11-02T12:11:22.442Z,99386.41
2022-11-02T12:13:51.003Z,99395.19
2022-11-02T12:15:55.855Z,99384.56
2022-11-02T12:18:22.313Z,99383.41
2022-11-02T12:20:49.976Z,99382.19
2022-11-02T12:23:00.890Z,99377.66
2022-11-02T12:25:16.381Z,99377.28
2022-11-02T12:27:32.109Z,99381.88
2022-11-02T12:29:42.810Z,99373.72
2022-11-02T12:31:53.555Z,99369.97
2022-11-02T12:34:22.260Z,99362.13
2022-11-02T12:36:39.532Z,99365.38
2022-11-02T12:38:58.535Z,99353.59
2022-11-02T12:41:07.366Z,99360.41
2022-11-02T12:43:38.695Z,99361.47
2022-11-02T12:46:02.525Z,99353.88
2022-11-02T12:48:05.553Z,99355.16
2022-11-02T12:50:44.553Z,99348.97
2022-11-02T12:53:13.443Z,99348.38
2022-11-02T12:55:19.983Z,99350.22
2022-11-02T12:57:28.432Z,99353.84
2022-11-02T12:59:37.234Z,99348.28
2022-11-02T13:03:55.430Z,99346.25
2022-11-02T13:06:06.394Z,99341.22
2022-11-02T13:08:25.859Z,99350.69
2022-11-02T13:10:47.128Z,99351.28
2022-11-02T13:14:57.995Z,99341.31
2022-11-02T13:17:11.711Z,99337.19
2022-11-02T13:19:20.329Z,99336.66
2022-11-02T13:21:43.736Z,99341.38
2022-11-02T13:23:51.652Z,99338.09
2022-11-02T13:26:02.438Z,99339.22
2022-11-02T13:28:19.349Z,99334.81
2022-11-02T13:30:21.369Z,99340.38
2022-11-02T13:32:32.591Z,99339.53
2022-11-02T13:34:40.753Z,99331.22
2022-11-02T13:36:42.510Z,99331.53
2022-11-02T13:38:46.558Z,99326.56
2022-11-02T13:41:04.431Z,99325.75
2022-11-02T13:43:25.999Z,99324.41
2022-11-02T13:45:46.893Z,99319.16
2022-11-02T13:48:16.044Z,99329.53
2022-11-02T13:50:22.870Z,99329.81
2022-11-02T13:52:43.290Z,99331.53
2022-11-02T13:54:51.165Z,99331.53
2022-11-02T13:56:56.291Z,99328.53
2022-11-02T13:59:04.509Z,99321.66
2022-11-02T14:01:10.687Z,99317.00
2022-11-02T14:03:18.210Z,99323.16
2022-11-02T14:05:31.196Z,99320.47
2022-11-02T14:07:35.616Z,99316.66
2022-11-02T14:09:42.272Z,99331.13
2022-11-02T14:11:43.853Z,99331.69
2022-11-02T14:13:54.289Z,99330.13
2022-11-02T14:15:56.609Z,99340.69
2022-11-02T14:18:07.299Z,99341.56
2022-11-02T14:20:39.690Z,99348.84
2022-11-02T14:22:41.305Z,99337.53
2022-11-02T14:24:42.871Z,99333.72
2022-11-02T14:26:56.020Z,99329.91
2022-11-02T14:28:57.817Z,99342.41
2022-11-02T14:31:05.581Z,99337.47
2022-11-02T14:33:21.595Z,99335.59
2022-11-02T14:35:46.446Z,99347.00
2022-11-02T14:38:07.183Z,99343.47
2022-11-02T14:40:47.727Z,99355.75
2022-11-02T14:43:13.134Z,99349.97
2022-11-02T14:45:32.765Z,99345.34
2022-11-02T14:47:38.776Z,99341.50
2022-11-02T14:49:49.538Z,99338.78
2022-11-02T14:52:14.494Z,99340.81
2022-11-02T14:54:18.752Z,99335.53
2022-11-02T14:56:20.398Z,99326.16
2022-11-02T14:58:27.243Z,99324.81
2022-11-02T15:00:47.320Z,99326.56
2022-11-02T15:02:50.056Z,99321.63
2022-11-02T15:04:54.939Z,99322.50
2022-11-02T15:07:02.504Z,99323.09
2022-11-02T15:09:08.201Z,99324.25
2022-11-02T15:11:44.682Z,99328.19
2022-11-02T15:13:47.675Z,99329.38
2022-11-02T15:15:55.368Z,99336.06
2022-11-02T15:17:56.913Z,99332.25
2022-11-02T15:19:58.472Z,99332.88
2022-11-02T15:22:30.129Z,99326.03
2022-11-02T15:24:33.723Z,99331.28
2022-11-02T15:26:49.477Z,99329.97
2022-11-02T15:28:54.031Z,99323.94
2022-11-02T15:31:03.604Z,99327.31
2022-11-02T15:33:06.867Z,99335.94
2022-11-02T15:35:19.862Z,99337.38
2022-11-02T15:37:26.945Z,99333.00
2022-11-02T15:39:30.345Z,99337.72
2022-11-02T15:41:43.610Z,99331.69
2022-11-02T15:46:03.468Z,99341.44
2022-11-02T15:48:26.830Z,99338.19
2022-11-02T15:50:44.862Z,99331.63
2022-11-02T15:53:24.659Z,99334.97
2022-11-02T15:55:51.965Z,99336.38
2022-11-02T15:58:28.933Z,99346.31
2022-11-02T16:00:30.542Z,99352.47
2022-11-02T16:02:35.232Z,99348.06
2022-11-02T16:04:37.482Z,99349.47
2022-11-02T16:06:42.940Z,99347.56
2022-11-02T16:08:45.194Z,99342.31
2022-11-02T16:10:48.668Z,99343.47
2022-11-02T16:13:12.673Z,99342.09
2022-11-02T16:15:19.017Z,99346.50
2022-11-02T16:17:31.436Z,99340.44
2022-11-02T16:19:33.022Z,99338.78
2022-11-02T16:21:34.593Z,99336.03
2022-11-02T16:23:40.021Z,99341.03
2022-11-02T16:25:52.104Z,99332.19
2022-11-02T16:27:53.707Z,99336.88
2022-11-02T16:29:55.437Z,99334.41
2022-11-02T16:31:58.095Z,99341.84
2022-11-02T16:34:11.625Z,99346.81
2022-11-02T16:36:22.631Z,99342.38
2022-11-02T16:38:24.701Z,99336.31
2022-11-02T16:40:27.815Z,99341.81
2022-11-02T16:42:29.529Z,99338.25
2022-11-02T16:44:33.312Z,99339.91
2022-11-02T16:46:48.006Z,99336.00
2022-11-02T16:49:15.334Z,99338.19
2022-11-02T16:51:18.791Z,99342.34
2022-11-02T16:53:31.747Z,99329.09
2022-11-02T16:55:41.075Z,99339.00
2022-11-02T16:57:45.466Z,99337.31
2022-11-02T16:59:57.561Z,99334.84
2022-11-02T17:02:04.155Z,99340.56
2022-11-02T17:04:17.084Z,99341.91
2022-11-02T17:06:19.125Z,99339.97
2022-11-02T17:08:30.548Z,99334.16
2022-11-02T17:10:34.190Z,99337.44
2022-11-02T17:12:42.259Z,99337.44
2022-11-02T17:14:47.569Z,99344.00
2022-11-02T17:17:27.086Z,99340.94
2022-11-02T17:19:44.785Z,99348.59
2022-11-02T17:21:46.329Z,99351.06
2022-11-02T17:23:48.030Z,99347.44
2022-11-02T17:25:49.589Z,99343.84
2022-11-02T17:27:53.288Z,99345.72
2022-11-02T17:29:54.859Z,99356.44
2022-11-02T17:32:00.447Z,99347.03
2022-11-02T17:34:10.678Z,99343.69
2022-11-02T17:36:13.363Z,99348.09
2022-11-02T17:38:15.394Z,99330.72
2022-11-02T17:40:16.973Z,99338.66
2022-11-02T17:42:37.580Z,99331.50
2022-11-02T17:44:39.185Z,99336.06
2022-11-02T17:46:43.105Z,99326.97
2022-11-02T17:48:47.586Z,99333.50
2022-11-02T17:50:52.945Z,99327.97
2022-11-02T17:52:55.143Z,99331.50
2022-11-02T17:54:57.151Z,99331.22
2022-11-02T17:57:01.136Z,99331.16
2022-11-02T17:59:02.800Z,99335.28
2022-11-02T18:01:05.300Z,99326.97
2022-11-02T18:03:14.722Z,99323.91
2022-11-02T18:05:28.606Z,99331.03
2022-11-02T18:07:30.305Z,99324.38
2022-11-02T18:09:32.967Z,99320.53
2022-11-02T18:11:34.600Z,99317.72
2022-11-02T18:13:36.232Z,99323.72
2022-11-02T18:15:37.843Z,99323.69
2022-11-02T18:17:39.386Z,99322.28
2022-11-02T18:19:40.903Z,99324.69
2022-11-02T18:21:42.613Z,99312.59
2022-11-02T18:23:44.660Z,99311.19
2022-11-02T18:25:46.580Z,99308.41
2022-11-02T18:27:48.268Z,99305.94
2022-11-02T18:29:49.834Z,99300.63
2022-11-02T18:31:51.321Z,99311.31
2022-11-02T18:33:53.096Z,99306.06
2022-11-02T18:36:05.318Z,99303.53
2022-11-02T18:38:07.241Z,99308.44
2022-11-02T18:40:11.634Z,99300.94
2022-11-02T18:42:13.233Z,99307.75
2022-11-02T18:44:15.769Z,99302.22
2022-11-02T18:46:17.653Z,99292.03
2022-11-02T18:48:19.231Z,99291.69
2022-11-02T18:50:20.777Z,99302.09
2022-11-02T18:52:22.667Z,99295.47
2022-11-02T18:54:24.538Z,99296.00
2022-11-02T18:56:26.175Z,99288.53
2022-11-02T18:58:27.753Z,99296.44
2022-11-02T19:00:29.344Z,99292.78
2022-11-02T19:02:31.352Z,99284.50
2022-11-02T19:04:33.826Z,99295.16
2022-11-02T19:06:54.166Z,99288.50
2022-11-02T19:09:14.514Z,99289.28
2022-11-02T19:11:16.051Z,99307.56
2022-11-02T19:13:17.752Z,99296.28
2022-11-02T19:15:19.298Z,99295.94
2022-11-02T19:17:22.794Z,99295.88
2022-11-02T19:19:24.602Z,99301.84
2022-11-02T19:21:26.157Z,99299.88
2022-11-02T19:23:27.811Z,99305.28
2022-11-02T19:25:29.455Z,99303.31
2022-11-02T19:27:31.239Z,99300.47
2022-11-02T19:29:34.025Z,99300.97
2022-11-02T19:31:35.818Z,99294.38
2022-11-02T19:33:37.400Z,99303.06
2022-11-02T19:35:38.992Z,99296.69
2022-11-02T19:37:41.186Z,99298.00
2022-11-02T19:39:42.942Z,99302.91
2022-11-02T19:41:44.678Z,99306.13
2022-11-02T19:43:46.263Z,99295.09
2022-11-02T19:45:47.827Z,99293.66
2022-11-02T19:47:50.092Z,99293.34
2022-11-02T19:49:51.727Z,99293.84
2022-11-02T19:51:53.359Z,99302.53
2022-11-02T19:54:00.066Z,99296.50
2022-11-02T19:56:01.912Z,99296.97
2022-11-02T19:58:03.566Z,99305.41
2022-11-02T20:00:05.840Z,99290.31
2022-11-02T20:02:11.066Z,99295.22
2022-11-02T20:04:12.630Z,99285.38
2022-11-02T20:06:23.301Z,99282.03
2022-11-02T20:08:26.486Z,99290.25
2022-11-02T20:10:28.276Z,99282.56
2022-11-02T20:12:33.403Z,99287.41
2022-11-02T20:14:36.542Z,99290.41
2022-11-02T20:16:38.138Z,99286.00
2022-11-02T20:18:41.248Z,99297.22
2022-11-02T20:20:42.858Z,99289.50
2022-11-02T20:22:45.009Z,99287.00
2022-11-02T20:24:46.560Z,99283.19
2022-11-02T20:26:48.080Z,99288.34
2022-11-02T20:28:50.444Z,99291.56
2022-11-02T20:30:53.456Z,99283.59
2022-11-02T20:32:54.950Z,99286.84
2022-11-02T20:34:56.531Z,99293.63
2022-11-02T20:36:57.995Z,99290.78
2022-11-02T20:38:59.630Z,99292.69
2022-11-02T20:41:13.108Z,99289.03
2022-11-02T20:43:14.578Z,99275.03
2022-11-02T20:45:17.849Z,99274.19
2022-11-02T20:47:19.254Z,99266.47
2022-11-02T20:49:44.391Z,99264.22
2022-11-02T20:51:44.113Z,99272.91
2022-11-02T20:53:46.391Z,99277.22
2022-11-02T20:55:48.045Z,99283.75
2022-11-02T20:57:49.918Z,99282.59
2022-11-02T20:59:51.556Z,99280.91
2022-11-02T21:01:53.439Z,99288.78
2022-11-02T21:03:55.218Z,99290.34
2022-11-02T21:05:57.379Z,99290.00
2022-11-02T21:07:59.146Z,99287.75
2022-11-02T21:10:00.563Z,99284.44
2022-11-02T21:12:21.417Z,99285.97
2022-11-02T21:14:23.393Z,99284.25
2022-11-02T21:16:25.597Z,99281.16
2022-11-02T21:18:27.191Z,99288.19
2022-11-02T21:20:34.108Z,99285.94
2022-11-02T21:22:36.747Z,99284.75
2022-11-02T21:24:38.376Z,99282.84
2022-11-02T21:26:39.929Z,99287.72
2022-11-02T21:28:44.607Z,99278.09
2022-11-02T21:30:46.225Z,99278.56
2022-11-02T21:32:51.764Z,99266.00
2022-11-02T21:34:53.451Z,99263.13
2022-11-02T21:36:55.057Z,99260.63
2022-11-02T21:38:58.516Z,99268.22
2022-11-02T21:41:01.984Z,99271.22
2022-11-02T21:43:03.987Z,99274.16
2022-11-02T21:45:06.685Z,99269.78
2022-11-02T21:47:08.876Z,99282.84
2022-11-02T21:49:10.471Z,99281.41
2022-11-02T21:51:18.647Z,99281.66
2022-11-02T21:53:20.726Z,99278.56
2022-11-02T21:55:22.738Z,99272.53
2022-11-02T21:57:27.291Z,99271.09
2022-11-02T21:59:29.293Z,99266.72
2022-11-02T22:01:44.246Z,99277.03
2022-11-02T22:03:46.810Z,99281.31
2022-11-02T22:05:57.275Z,99271.72
2022-11-02T22:08:17.557Z,99278.47
2022-11-02T22:10:19.376Z,99268.03
2022-11-02T22:12:39.674Z,99265.78
2022-11-02T22:14:43.915Z,99272.78
2022-11-02T22:16:45.594Z,99267.78
2022-11-02T22:18:52.639Z,99268.88
2022-11-02T22:20:55.135Z,99267.22
2022-11-02T22:22:56.668Z,99267.69
2022-11-02T22:24:58.336Z,99266.03
2022-11-02T22:26:59.995Z,99256.19
2022-11-02T22:29:04.855Z,99249.28
2022-11-02T22:31:09.036Z,99253.34
2022-11-02T22:33:13.715Z,99247.50
2022-11-02T22:35:15.478Z,99248.59
2022-11-02T22:37:35.509Z,99246.91
2022-11-02T22:39:37.075Z,99242.19
2022-11-02T22:41:49.856Z,99244.06
2022-11-02T22:44:15.109Z,99240.75
2022-11-02T22:46:17.765Z,99240.16
2022-11-02T22:48:20.142Z,99240.16
2022-11-02T22:50:27.793Z,99232.19
2022-11-02T22:52:32.566Z,99231.63
2022-11-02T22:54:34.099Z,99240.63
2022-11-02T22:56:36.116Z,99241.47
2022-11-02T22:58:39.720Z,99238.16
2022-11-02T23:00:41.974Z,99233.50
2022-11-02T23:02:43.738Z,99229.34
2022-11-02T23:04:45.347Z,99222.25
2022-11-02T23:06:47.091Z,99231.50
2022-11-02T23:08:52.828Z,99225.19
2022-11-02T23:11:17.005Z,99227.34
2022-11-02T23:13:18.853Z,99227.59
2022-11-02T23:15:22.669Z,99217.72
2022-11-02T23:17:24.798Z,99220.47
2022-11-02T23:19:30.435Z,99223.19
2022-11-02T23:21:32.535Z,99214.16
2022-11-02T23:23:52.853Z,99225.34
2022-11-02T23:25:56.504Z,99222.84
2022-11-02T23:28:17.679Z,99217.41
2022-11-02T23:30:38.125Z,99219.28
2022-11-02T23:32:41.390Z,99211.09
2022-11-02T23:35:03.011Z,99215.72
2022-11-02T23:37:07.524Z,99213.25
2022-11-02T23:39:28.147Z,99217.88
2022-11-02T23:41:31.448Z,99218.69
2022-11-02T23:43:32.949Z,99218.06
2022-11-02T23:45:37.752Z,99210.75
2022-11-02T23:47:57.234Z,99209.91
2022-11-02T23:49:58.808Z,99206.59
2022-11-02T23:52:21.622Z,99212.03
2022-11-02T23:54:41.830Z,99210.41
2022-11-02T23:56:43.696Z,99210.41
2022-11-02T23:58:46.229Z,99207.66
